sensor_id;sensor_type;location;lat;lon;timestamp;pressure;altitude;pressure_sealevel;temperature;humidity
18527;BME280;9393;42.158;24.748;2023-09-19T00:00:14;99986.31;;;21.99;59.36
18527;BME280;9393;42.158;24.748;2023-09-19T00:03:21;99986.25;;;21.79;59.84
18527;BME280;9393;42.158;24.748;2023-09-19T00:06:28;99986.28;;;21.86;58.72
18527;BME280;9393;42.158;24.748;2023-09-19T00:09:33;99989.34;;;21.89;58.40
18527;BME280;9393;42.158;24.748;2023-09-19T00:12:44;99987.34;;;21.91;58.34
18527;BME280;9393;42.158;24.748;2023-09-19T00:15:48;99979.56;;;21.90;57.85
18527;BME280;9393;42.158;24.748;2023-09-19T00:18:53;99982.41;;;22.14;57.27
18527;BME280;9393;42.158;24.748;2023-09-19T00:21:57;99983.25;;;22.08;57.06
18527;BME280;9393;42.158;24.748;2023-09-19T00:25:01;99974.41;;;21.62;57.70
18527;BME280;9393;42.158;24.748;2023-09-19T00:28:07;99982.84;;;21.98;56.62
18527;BME280;9393;42.158;24.748;2023-09-19T00:31:12;99977.13;;;22.08;56.28
18527;BME280;9393;42.158;24.748;2023-09-19T00:34:16;99975.88;;;22.10;56.17
18527;BME280;9393;42.158;24.748;2023-09-19T00:37:20;99981.19;;;22.10;56.14
18527;BME280;9393;42.158;24.748;2023-09-19T00:40:24;99968.97;;;22.03;55.72
18527;BME280;9393;42.158;24.748;2023-09-19T00:43:30;99975.47;;;22.13;55.19
18527;BME280;9393;42.158;24.748;2023-09-19T00:46:37;99973.66;;;21.94;55.81
18527;BME280;9393;42.158;24.748;2023-09-19T00:49:41;99964.84;;;21.87;56.00
18527;BME280;9393;42.158;24.748;2023-09-19T00:52:46;99969.13;;;21.82;55.90
18527;BME280;9393;42.158;24.748;2023-09-19T00:55:52;99967.91;;;22.04;55.29
18527;BME280;9393;42.158;24.748;2023-09-19T00:59:00;99973.03;;;22.05;55.25
18527;BME280;9393;42.158;24.748;2023-09-19T01:02:04;99975.88;;;22.04;55.09
18527;BME280;9393;42.158;24.748;2023-09-19T01:05:08;99971.38;;;22.11;54.90
18527;BME280;9393;42.158;24.748;2023-09-19T01:08:13;99971.38;;;21.72;55.98
18527;BME280;9393;42.158;24.748;2023-09-19T01:11:21;99969.09;;;21.68;55.84
18527;BME280;9393;42.158;24.748;2023-09-19T01:14:39;99967.47;;;21.61;56.97
18527;BME280;9393;42.158;24.748;2023-09-19T01:17:48;99970.31;;;21.59;57.43
18527;BME280;9393;42.158;24.748;2023-09-19T01:21:01;99962.38;;;21.66;57.36
18527;BME280;9393;42.158;24.748;2023-09-19T01:24:38;99959.72;;;21.59;57.72
18527;BME280;9393;42.158;24.748;2023-09-19T01:28:15;99958.28;;;21.57;57.90
18527;BME280;9393;42.158;24.748;2023-09-19T01:31:28;99951.34;;;21.62;58.31
18527;BME280;9393;42.158;24.748;2023-09-19T01:34:47;99952.75;;;21.45;58.81
18527;BME280;9393;42.158;24.748;2023-09-19T01:37:51;99955.81;;;21.42;58.85
18527;BME280;9393;42.158;24.748;2023-09-19T01:41:02;99958.28;;;21.50;58.96
18527;BME280;9393;42.158;24.748;2023-09-19T01:44:13;99961.13;;;21.49;59.07
18527;BME280;9393;42.158;24.748;2023-09-19T01:47:31;99956.38;;;21.31;59.52
18527;BME280;9393;42.158;24.748;2023-09-19T01:50:41;99962.16;;;20.94;60.17
18527;BME280;9393;42.158;24.748;2023-09-19T01:53:53;99956.47;;;20.97;60.74
18527;BME280;9393;42.158;24.748;2023-09-19T01:57:03;99948.31;;;20.98;60.82
18527;BME280;9393;42.158;24.748;2023-09-19T02:00:13;99945.47;;;21.00;60.83
18527;BME280;9393;42.158;24.748;2023-09-19T02:03:21;99961.13;;;20.88;60.50
18527;BME280;9393;42.158;24.748;2023-09-19T02:06:26;99958.91;;;20.92;60.23
18527;BME280;9393;42.158;24.748;2023-09-19T02:09:30;99949.31;;;20.91;60.53
18527;BME280;9393;42.158;24.748;2023-09-19T02:12:35;99954.03;;;21.02;59.74
18527;BME280;9393;42.158;24.748;2023-09-19T02:15:40;99948.75;;;21.08;59.22
18527;BME280;9393;42.158;24.748;2023-09-19T02:18:48;99946.34;;;21.13;58.88
18527;BME280;9393;42.158;24.748;2023-09-19T02:21:55;99946.69;;;20.97;59.17
18527;BME280;9393;42.158;24.748;2023-09-19T02:24:59;99937.78;;;21.11;58.39
18527;BME280;9393;42.158;24.748;2023-09-19T02:28:04;99940.13;;;20.93;58.27
18527;BME280;9393;42.158;24.748;2023-09-19T02:31:09;99938.53;;;20.99;58.21
18527;BME280;9393;42.158;24.748;2023-09-19T02:34:15;99945.88;;;21.03;57.83
18527;BME280;9393;42.158;24.748;2023-09-19T02:37:20;99949.03;;;20.79;58.45
18527;BME280;9393;42.158;24.748;2023-09-19T02:40:24;99947.84;;;20.82;58.37
18527;BME280;9393;42.158;24.748;2023-09-19T02:43:30;99939.13;;;20.47;59.03
18527;BME280;9393;42.158;24.748;2023-09-19T02:46:37;99940.72;;;20.82;58.11
18527;BME280;9393;42.158;24.748;2023-09-19T02:49:42;99944.59;;;20.86;57.85
18527;BME280;9393;42.158;24.748;2023-09-19T02:52:47;99937.38;;;20.67;58.10
18527;BME280;9393;42.158;24.748;2023-09-19T02:55:52;99937.00;;;20.70;57.94
18527;BME280;9393;42.158;24.748;2023-09-19T02:58:56;99941.56;;;20.48;58.67
18527;BME280;9393;42.158;24.748;2023-09-19T03:02:03;99938.47;;;20.45;58.97
18527;BME280;9393;42.158;24.748;2023-09-19T03:05:10;99934.78;;;20.39;59.07
18527;BME280;9393;42.158;24.748;2023-09-19T03:08:15;99936.13;;;20.63;58.58
18527;BME280;9393;42.158;24.748;2023-09-19T03:11:22;99939.38;;;20.58;58.81
18527;BME280;9393;42.158;24.748;2023-09-19T03:14:31;99934.66;;;20.47;59.09
18527;BME280;9393;42.158;24.748;2023-09-19T03:17:42;99934.63;;;20.41;59.15
18527;BME280;9393;42.158;24.748;2023-09-19T03:20:54;99933.28;;;20.58;58.66
18527;BME280;9393;42.158;24.748;2023-09-19T03:23:58;99933.88;;;20.60;58.47
18527;BME280;9393;42.158;24.748;2023-09-19T03:27:03;99933.28;;;20.58;58.60
18527;BME280;9393;42.158;24.748;2023-09-19T03:30:08;99936.28;;;20.55;58.58
18527;BME280;9393;42.158;24.748;2023-09-19T03:33:17;99932.22;;;20.52;58.69
18527;BME280;9393;42.158;24.748;2023-09-19T03:36:23;99938.41;;;20.04;60.19
18527;BME280;9393;42.158;24.748;2023-09-19T03:39:27;99931.38;;;20.17;60.00
18527;BME280;9393;42.158;24.748;2023-09-19T03:42:33;99932.94;;;20.33;59.39
18527;BME280;9393;42.158;24.748;2023-09-19T03:45:38;99931.09;;;20.34;59.58
18527;BME280;9393;42.158;24.748;2023-09-19T03:48:43;99935.50;;;20.27;59.94
18527;BME280;9393;42.158;24.748;2023-09-19T03:51:49;99934.25;;;20.23;59.89
18527;BME280;9393;42.158;24.748;2023-09-19T03:54:53;99933.56;;;20.14;60.35
18527;BME280;9393;42.158;24.748;2023-09-19T03:57:57;99944.00;;;20.15;60.25
18527;BME280;9393;42.158;24.748;2023-09-19T04:01:01;99943.78;;;19.89;60.90
18527;BME280;9393;42.158;24.748;2023-09-19T04:04:06;99946.13;;;19.99;60.59
18527;BME280;9393;42.158;24.748;2023-09-19T04:07:13;99948.38;;;20.02;60.70
18527;BME280;9393;42.158;24.748;2023-09-19T04:10:17;99944.84;;;19.95;61.13
18527;BME280;9393;42.158;24.748;2023-09-19T04:13:26;99946.28;;;19.97;60.98
18527;BME280;9393;42.158;24.748;2023-09-19T04:16:30;99943.31;;;20.07;60.83
18527;BME280;9393;42.158;24.748;2023-09-19T04:19:34;99940.69;;;20.13;60.49
18527;BME280;9393;42.158;24.748;2023-09-19T04:22:41;99936.44;;;19.85;61.34
18527;BME280;9393;42.158;24.748;2023-09-19T04:25:45;99937.97;;;20.00;60.98
18527;BME280;9393;42.158;24.748;2023-09-19T04:28:50;99947.50;;;19.95;61.05
18527;BME280;9393;42.158;24.748;2023-09-19T04:31:54;99941.13;;;19.89;61.36
18527;BME280;9393;42.158;24.748;2023-09-19T04:34:59;99950.94;;;19.89;61.12
18527;BME280;9393;42.158;24.748;2023-09-19T04:38:07;99951.66;;;19.83;61.26
18527;BME280;9393;42.158;24.748;2023-09-19T04:41:11;99952.00;;;19.73;60.95
18527;BME280;9393;42.158;24.748;2023-09-19T04:44:15;99942.69;;;19.56;61.36
18527;BME280;9393;42.158;24.748;2023-09-19T04:47:21;99943.59;;;19.91;60.32
18527;BME280;9393;42.158;24.748;2023-09-19T04:50:25;99950.19;;;19.74;60.90
18527;BME280;9393;42.158;24.748;2023-09-19T04:53:31;99947.63;;;19.87;60.67
18527;BME280;9393;42.158;24.748;2023-09-19T04:56:36;99946.69;;;19.94;60.41
18527;BME280;9393;42.158;24.748;2023-09-19T04:59:43;99946.03;;;19.86;60.65
18527;BME280;9393;42.158;24.748;2023-09-19T05:02:49;99937.84;;;20.08;59.65
18527;BME280;9393;42.158;24.748;2023-09-19T05:05:53;99943.94;;;19.81;60.53
18527;BME280;9393;42.158;24.748;2023-09-19T05:08:59;99943.75;;;20.10;59.50
18527;BME280;9393;42.158;24.748;2023-09-19T05:12:03;99945.28;;;20.26;59.71
18527;BME280;9393;42.158;24.748;2023-09-19T05:15:08;99941.28;;;20.30;59.30
18527;BME280;9393;42.158;24.748;2023-09-19T05:18:12;99946.44;;;20.45;58.60
18527;BME280;9393;42.158;24.748;2023-09-19T05:21:16;99952.28;;;20.68;57.85
18527;BME280;9393;42.158;24.748;2023-09-19T05:24:22;99961.69;;;20.77;57.96
18527;BME280;9393;42.158;24.748;2023-09-19T05:27:28;99944.19;;;20.89;57.53
18527;BME280;9393;42.158;24.748;2023-09-19T05:30:33;99949.41;;;21.17;56.63
18527;BME280;9393;42.158;24.748;2023-09-19T05:33:38;99943.97;;;21.38;55.87
18527;BME280;9393;42.158;24.748;2023-09-19T05:36:43;99953.81;;;21.77;55.20
18527;BME280;9393;42.158;24.748;2023-09-19T05:39:48;99960.97;;;21.90;55.06
18527;BME280;9393;42.158;24.748;2023-09-19T05:42:52;99962.75;;;22.42;53.83
18527;BME280;9393;42.158;24.748;2023-09-19T05:45:56;99967.22;;;22.48;53.98
18527;BME280;9393;42.158;24.748;2023-09-19T05:49:00;99973.53;;;22.73;52.19
18527;BME280;9393;42.158;24.748;2023-09-19T05:52:06;99972.28;;;22.89;51.84
18527;BME280;9393;42.158;24.748;2023-09-19T05:55:11;99968.53;;;22.26;53.72
18527;BME280;9393;42.158;24.748;2023-09-19T05:58:16;99967.50;;;21.81;55.82
18527;BME280;9393;42.158;24.748;2023-09-19T06:01:20;99953.50;;;22.64;54.45
18527;BME280;9393;42.158;24.748;2023-09-19T06:04:24;99946.34;;;22.78;54.17
18527;BME280;9393;42.158;24.748;2023-09-19T06:07:28;99951.78;;;22.96;53.64
18527;BME280;9393;42.158;24.748;2023-09-19T06:10:40;99940.78;;;22.86;54.02
18527;BME280;9393;42.158;24.748;2023-09-19T06:13:44;99944.63;;;23.28;53.50
18527;BME280;9393;42.158;24.748;2023-09-19T06:16:49;99942.38;;;23.62;52.01
18527;BME280;9393;42.158;24.748;2023-09-19T06:19:56;99946.25;;;23.91;51.53
18527;BME280;9393;42.158;24.748;2023-09-19T06:23:03;99945.59;;;24.21;50.95
18527;BME280;9393;42.158;24.748;2023-09-19T06:26:08;99942.06;;;24.27;51.01
18527;BME280;9393;42.158;24.748;2023-09-19T06:29:13;99948.53;;;24.37;50.99
18527;BME280;9393;42.158;24.748;2023-09-19T06:32:18;99939.47;;;24.75;50.76
18527;BME280;9393;42.158;24.748;2023-09-19T06:35:24;99938.94;;;25.32;49.31
18527;BME280;9393;42.158;24.748;2023-09-19T06:38:29;99943.53;;;25.55;49.12
18527;BME280;9393;42.158;24.748;2023-09-19T06:41:35;99934.28;;;25.69;48.29
18527;BME280;9393;42.158;24.748;2023-09-19T06:44:45;99933.03;;;25.83;48.39
18527;BME280;9393;42.158;24.748;2023-09-19T06:47:50;99937.44;;;25.78;48.18
18527;BME280;9393;42.158;24.748;2023-09-19T06:50:56;99929.31;;;25.43;48.48
18527;BME280;9393;42.158;24.748;2023-09-19T06:54:07;99924.97;;;25.19;48.94
18527;BME280;9393;42.158;24.748;2023-09-19T06:57:14;99931.38;;;25.29;49.17
18527;BME280;9393;42.158;24.748;2023-09-19T07:00:18;99932.88;;;24.77;50.03
18527;BME280;9393;42.158;24.748;2023-09-19T07:03:24;99926.38;;;24.91;49.81
18527;BME280;9393;42.158;24.748;2023-09-19T07:06:31;99926.25;;;25.16;49.55
18527;BME280;9393;42.158;24.748;2023-09-19T07:09:35;99922.13;;;25.43;49.36
18527;BME280;9393;42.158;24.748;2023-09-19T07:12:41;99921.38;;;25.25;50.02
18527;BME280;9393;42.158;24.748;2023-09-19T07:15:45;99920.81;;;25.34;49.36
18527;BME280;9393;42.158;24.748;2023-09-19T07:18:53;99922.44;;;25.35;49.32
18527;BME280;9393;42.158;24.748;2023-09-19T07:21:57;99920.63;;;25.06;50.62
18527;BME280;9393;42.158;24.748;2023-09-19T07:25:01;99924.53;;;25.86;49.56
18527;BME280;9393;42.158;24.748;2023-09-19T07:28:07;99922.59;;;26.17;48.77
18527;BME280;9393;42.158;24.748;2023-09-19T07:31:11;99927.88;;;26.63;47.09
18527;BME280;9393;42.158;24.748;2023-09-19T07:34:16;99923.41;;;26.92;46.70
18527;BME280;9393;42.158;24.748;2023-09-19T07:37:20;99921.31;;;27.10;45.69
18527;BME280;9393;42.158;24.748;2023-09-19T07:40:26;99910.50;;;26.89;46.56
18527;BME280;9393;42.158;24.748;2023-09-19T07:43:33;99909.84;;;27.27;45.08
18527;BME280;9393;42.158;24.748;2023-09-19T07:46:37;99907.28;;;27.65;44.17
18527;BME280;9393;42.158;24.748;2023-09-19T07:49:43;99907.28;;;27.65;43.56
18527;BME280;9393;42.158;24.748;2023-09-19T07:52:50;99897.97;;;27.51;44.39
18527;BME280;9393;42.158;24.748;2023-09-19T07:56:02;99908.34;;;27.81;43.62
18527;BME280;9393;42.158;24.748;2023-09-19T07:59:09;99894.06;;;27.75;43.95
18527;BME280;9393;42.158;24.748;2023-09-19T08:02:14;99879.91;;;28.13;42.99
18527;BME280;9393;42.158;24.748;2023-09-19T08:05:24;99875.59;;;28.12;42.63
18527;BME280;9393;42.158;24.748;2023-09-19T08:08:33;99876.09;;;28.31;42.69
18527;BME280;9393;42.158;24.748;2023-09-19T08:11:41;99874.22;;;28.09;42.38
18527;BME280;9393;42.158;24.748;2023-09-19T08:14:49;99879.44;;;27.66;42.28
18527;BME280;9393;42.158;24.748;2023-09-19T08:17:54;99877.59;;;28.22;42.05
18527;BME280;9393;42.158;24.748;2023-09-19T08:20:58;99866.19;;;28.53;41.51
18527;BME280;9393;42.158;24.748;2023-09-19T08:24:03;99866.50;;;28.13;41.31
18527;BME280;9393;42.158;24.748;2023-09-19T08:27:08;99861.44;;;28.60;41.55
18527;BME280;9393;42.158;24.748;2023-09-19T08:30:15;99866.19;;;28.31;41.47
18527;BME280;9393;42.158;24.748;2023-09-19T08:33:20;99860.13;;;28.19;41.38
18527;BME280;9393;42.158;24.748;2023-09-19T08:36:24;99849.97;;;28.21;41.27
18527;BME280;9393;42.158;24.748;2023-09-19T08:39:28;99852.78;;;28.09;41.35
18527;BME280;9393;42.158;24.748;2023-09-19T08:42:47;99848.72;;;28.29;40.87
18527;BME280;9393;42.158;24.748;2023-09-19T08:45:55;99839.16;;;28.38;41.14
18527;BME280;9393;42.158;24.748;2023-09-19T08:49:04;99835.28;;;28.07;40.76
18527;BME280;9393;42.158;24.748;2023-09-19T08:52:18;99832.44;;;28.14;41.96
18527;BME280;9393;42.158;24.748;2023-09-19T08:55:27;99833.88;;;28.43;40.29
18527;BME280;9393;42.158;24.748;2023-09-19T08:58:34;99827.19;;;28.94;39.48
18527;BME280;9393;42.158;24.748;2023-09-19T09:01:45;99824.66;;;29.41;38.69
18527;BME280;9393;42.158;24.748;2023-09-19T09:04:50;99831.25;;;29.60;38.50
18527;BME280;9393;42.158;24.748;2023-09-19T09:07:55;99832.94;;;29.71;38.89
18527;BME280;9393;42.158;24.748;2023-09-19T09:11:00;99823.66;;;29.94;38.38
18527;BME280;9393;42.158;24.748;2023-09-19T09:14:06;99816.19;;;29.59;38.55
18527;BME280;9393;42.158;24.748;2023-09-19T09:17:14;99811.03;;;29.94;37.99
18527;BME280;9393;42.158;24.748;2023-09-19T09:20:19;99809.84;;;29.80;37.71
18527;BME280;9393;42.158;24.748;2023-09-19T09:23:24;99806.00;;;29.66;37.71
18527;BME280;9393;42.158;24.748;2023-09-19T09:26:42;99807.09;;;29.28;38.23
18527;BME280;9393;42.158;24.748;2023-09-19T09:29:48;99801.78;;;29.33;38.52
18527;BME280;9393;42.158;24.748;2023-09-19T09:33:07;99793.84;;;29.95;37.37
18527;BME280;9393;42.158;24.748;2023-09-19T09:36:14;99795.88;;;29.83;37.24
18527;BME280;9393;42.158;24.748;2023-09-19T09:39:30;99787.94;;;29.98;37.22
18527;BME280;9393;42.158;24.748;2023-09-19T09:42:37;99790.22;;;29.38;37.75
18527;BME280;9393;42.158;24.748;2023-09-19T09:45:41;99782.41;;;29.73;37.06
18527;BME280;9393;42.158;24.748;2023-09-19T09:48:58;99786.22;;;29.82;36.81
18527;BME280;9393;42.158;24.748;2023-09-19T09:52:27;99781.59;;;30.30;36.57
18527;BME280;9393;42.158;24.748;2023-09-19T09:55:58;99775.75;;;30.43;36.27
18527;BME280;9393;42.158;24.748;2023-09-19T09:59:02;99763.00;;;30.18;36.91
18527;BME280;9393;42.158;24.748;2023-09-19T10:02:07;99757.72;;;28.71;38.38
18527;BME280;9393;42.158;24.748;2023-09-19T10:05:18;99752.38;;;27.62;40.40
18527;BME280;9393;42.158;24.748;2023-09-19T10:08:25;99758.09;;;27.16;41.40
18527;BME280;9393;42.158;24.748;2023-09-19T10:11:34;99764.66;;;27.58;40.78
18527;BME280;9393;42.158;24.748;2023-09-19T10:14:41;99758.75;;;27.78;40.65
18527;BME280;9393;42.158;24.748;2023-09-19T10:17:49;99752.47;;;28.59;39.31
18527;BME280;9393;42.158;24.748;2023-09-19T10:20:59;99753.25;;;29.55;38.02
18527;BME280;9393;42.158;24.748;2023-09-19T10:24:07;99755.34;;;29.85;37.79
18527;BME280;9393;42.158;24.748;2023-09-19T10:27:12;99752.63;;;30.57;36.38
18527;BME280;9393;42.158;24.748;2023-09-19T10:30:20;99751.47;;;30.33;36.28
18527;BME280;9393;42.158;24.748;2023-09-19T10:33:26;99747.16;;;30.32;36.60
18527;BME280;9393;42.158;24.748;2023-09-19T10:36:35;99734.59;;;30.78;35.68
18527;BME280;9393;42.158;24.748;2023-09-19T10:39:40;99735.44;;;30.98;35.37
18527;BME280;9393;42.158;24.748;2023-09-19T10:42:48;99716.28;;;30.54;35.24
18527;BME280;9393;42.158;24.748;2023-09-19T10:45:57;99715.59;;;30.07;36.19
18527;BME280;9393;42.158;24.748;2023-09-19T10:49:05;99704.81;;;29.97;36.41
18527;BME280;9393;42.158;24.748;2023-09-19T10:52:10;99706.84;;;30.47;35.66
18527;BME280;9393;42.158;24.748;2023-09-19T10:55:22;99706.53;;;30.23;35.88
18527;BME280;9393;42.158;24.748;2023-09-19T10:58:31;99700.06;;;30.29;36.18
18527;BME280;9393;42.158;24.748;2023-09-19T11:02:23;99700.38;;;30.43;35.30
18527;BME280;9393;42.158;24.748;2023-09-19T11:05:19;99694.13;;;30.27;35.66
18527;BME280;9393;42.158;24.748;2023-09-19T11:08:25;99688.00;;;29.18;37.01
18527;BME280;9393;42.158;24.748;2023-09-19T11:11:42;99682.38;;;29.61;37.12
18527;BME280;9393;42.158;24.748;2023-09-19T11:14:49;99678.28;;;30.36;36.67
18527;BME280;9393;42.158;24.748;2023-09-19T11:17:55;99668.91;;;30.64;34.70
18527;BME280;9393;42.158;24.748;2023-09-19T11:24:38;99671.06;;;30.67;35.34
18527;BME280;9393;42.158;24.748;2023-09-19T11:28:27;99659.47;;;31.01;34.55
18527;BME280;9393;42.158;24.748;2023-09-19T11:31:42;99659.50;;;30.71;35.11
18527;BME280;9393;42.158;24.748;2023-09-19T11:34:48;99641.72;;;30.75;34.87
18527;BME280;9393;42.158;24.748;2023-09-19T11:38:02;99645.44;;;30.24;36.10
18527;BME280;9393;42.158;24.748;2023-09-19T11:41:39;99635.69;;;29.87;36.27
18527;BME280;9393;42.158;24.748;2023-09-19T11:44:44;99627.69;;;30.28;35.49
18527;BME280;9393;42.158;24.748;2023-09-19T11:47:48;99628.16;;;29.84;36.76
18527;BME280;9393;42.158;24.748;2023-09-19T11:50:53;99623.38;;;30.22;35.69
18527;BME280;9393;42.158;24.748;2023-09-19T11:53:57;99618.78;;;29.92;35.80
18527;BME280;9393;42.158;24.748;2023-09-19T11:57:04;99612.78;;;29.75;36.50
18527;BME280;9393;42.158;24.748;2023-09-19T12:00:17;99613.69;;;29.95;36.17
18527;BME280;9393;42.158;24.748;2023-09-19T12:03:21;99612.03;;;29.89;35.73
18527;BME280;9393;42.158;24.748;2023-09-19T12:06:28;99604.28;;;30.23;36.04
18527;BME280;9393;42.158;24.748;2023-09-19T12:09:35;99602.09;;;29.85;36.48
18527;BME280;9393;42.158;24.748;2023-09-19T12:12:47;99595.94;;;30.40;35.45
18527;BME280;9393;42.158;24.748;2023-09-19T12:15:51;99590.00;;;29.92;35.56
18527;BME280;9393;42.158;24.748;2023-09-19T12:18:56;99586.72;;;29.75;35.93
18527;BME280;9393;42.158;24.748;2023-09-19T12:22:02;99589.13;;;29.77;35.42
18527;BME280;9393;42.158;24.748;2023-09-19T12:25:08;99585.38;;;29.10;36.66
18527;BME280;9393;42.158;24.748;2023-09-19T12:28:15;99584.75;;;28.93;36.99
18527;BME280;9393;42.158;24.748;2023-09-19T12:31:19;99582.38;;;29.02;36.58
18527;BME280;9393;42.158;24.748;2023-09-19T12:34:24;99580.97;;;29.36;36.74
18527;BME280;9393;42.158;24.748;2023-09-19T12:37:30;99577.00;;;29.59;35.97
18527;BME280;9393;42.158;24.748;2023-09-19T12:40:37;99578.53;;;29.35;36.09
18527;BME280;9393;42.158;24.748;2023-09-19T12:43:46;99573.22;;;29.50;36.25
18527;BME280;9393;42.158;24.748;2023-09-19T12:46:53;99570.53;;;29.50;35.96
18527;BME280;9393;42.158;24.748;2023-09-19T12:50:12;99563.31;;;29.71;35.40
18527;BME280;9393;42.158;24.748;2023-09-19T12:53:25;99563.09;;;29.87;35.26
18527;BME280;9393;42.158;24.748;2023-09-19T12:56:39;99558.56;;;30.18;35.07
18527;BME280;9393;42.158;24.748;2023-09-19T13:00:12;99558.28;;;30.45;35.02
18527;BME280;9393;42.158;24.748;2023-09-19T13:03:18;99562.03;;;30.69;34.14
18527;BME280;9393;42.158;24.748;2023-09-19T13:06:35;99554.78;;;30.65;33.93
18527;BME280;9393;42.158;24.748;2023-09-19T13:10:04;99555.06;;;30.33;34.59
18527;BME280;9393;42.158;24.748;2023-09-19T13:13:23;99548.34;;;30.30;35.18
18527;BME280;9393;42.158;24.748;2023-09-19T13:16:32;99546.69;;;29.84;34.87
18527;BME280;9393;42.158;24.748;2023-09-19T13:19:41;99543.94;;;29.69;35.11
18527;BME280;9393;42.158;24.748;2023-09-19T13:22:51;99540.00;;;30.27;34.36
18527;BME280;9393;42.158;24.748;2023-09-19T13:25:57;99538.38;;;30.46;33.73
18527;BME280;9393;42.158;24.748;2023-09-19T13:29:01;99534.59;;;30.67;34.16
18527;BME280;9393;42.158;24.748;2023-09-19T13:32:07;99539.91;;;30.87;34.17
18527;BME280;9393;42.158;24.748;2023-09-19T13:35:14;99524.25;;;30.94;33.97
18527;BME280;9393;42.158;24.748;2023-09-19T13:38:18;99524.88;;;30.66;33.92
18527;BME280;9393;42.158;24.748;2023-09-19T13:41:24;99521.59;;;30.84;33.16
18527;BME280;9393;42.158;24.748;2023-09-19T13:44:28;99515.13;;;30.95;32.78
18527;BME280;9393;42.158;24.748;2023-09-19T13:47:34;99517.53;;;30.92;33.33
18527;BME280;9393;42.158;24.748;2023-09-19T13:50:40;99507.56;;;31.02;32.00
18527;BME280;9393;42.158;24.748;2023-09-19T13:53:45;99504.84;;;31.13;33.00
18527;BME280;9393;42.158;24.748;2023-09-19T13:56:50;99501.50;;;30.36;33.48
18527;BME280;9393;42.158;24.748;2023-09-19T13:59:54;99502.28;;;30.62;32.75
18527;BME280;9393;42.158;24.748;2023-09-19T14:02:59;99502.72;;;30.89;33.27
18527;BME280;9393;42.158;24.748;2023-09-19T14:06:03;99498.22;;;30.75;32.68
18527;BME280;9393;42.158;24.748;2023-09-19T14:09:10;99488.06;;;30.41;32.51
18527;BME280;9393;42.158;24.748;2023-09-19T14:12:15;99492.09;;;30.34;33.05
18527;BME280;9393;42.158;24.748;2023-09-19T14:15:19;99488.63;;;30.43;33.05
18527;BME280;9393;42.158;24.748;2023-09-19T14:18:33;99497.44;;;30.59;32.48
18527;BME280;9393;42.158;24.748;2023-09-19T14:21:37;99494.28;;;30.17;32.64
18527;BME280;9393;42.158;24.748;2023-09-19T14:24:42;99487.81;;;30.18;33.41
18527;BME280;9393;42.158;24.748;2023-09-19T14:27:46;99481.34;;;30.29;32.65
18527;BME280;9393;42.158;24.748;2023-09-19T14:30:51;99492.66;;;30.11;32.96
18527;BME280;9393;42.158;24.748;2023-09-19T14:33:57;99492.09;;;30.49;32.83
18527;BME280;9393;42.158;24.748;2023-09-19T14:37:01;99491.81;;;30.55;33.08
18527;BME280;9393;42.158;24.748;2023-09-19T14:40:08;99491.28;;;30.53;33.20
18527;BME280;9393;42.158;24.748;2023-09-19T14:43:12;99491.25;;;30.64;32.52
18527;BME280;9393;42.158;24.748;2023-09-19T14:46:16;99482.69;;;30.36;33.52
18527;BME280;9393;42.158;24.748;2023-09-19T14:49:22;99489.44;;;30.19;33.34
18527;BME280;9393;42.158;24.748;2023-09-19T14:52:27;99485.16;;;29.92;33.95
18527;BME280;9393;42.158;24.748;2023-09-19T14:55:31;99488.84;;;29.41;35.27
18527;BME280;9393;42.158;24.748;2023-09-19T14:58:44;99493.13;;;29.42;35.40
18527;BME280;9393;42.158;24.748;2023-09-19T15:01:49;99492.56;;;29.35;35.22
18527;BME280;9393;42.158;24.748;2023-09-19T15:04:55;99487.66;;;29.17;35.60
18527;BME280;9393;42.158;24.748;2023-09-19T15:08:00;99498.63;;;29.10;35.62
18527;BME280;9393;42.158;24.748;2023-09-19T15:11:05;99500.56;;;29.20;36.15
18527;BME280;9393;42.158;24.748;2023-09-19T15:14:09;99488.94;;;28.99;36.37
18527;BME280;9393;42.158;24.748;2023-09-19T15:17:13;99487.47;;;28.76;36.20
18527;BME280;9393;42.158;24.748;2023-09-19T15:20:19;99497.13;;;28.67;36.47
18527;BME280;9393;42.158;24.748;2023-09-19T15:23:23;99491.75;;;28.72;37.03
18527;BME280;9393;42.158;24.748;2023-09-19T15:26:34;99489.50;;;28.59;38.07
18527;BME280;9393;42.158;24.748;2023-09-19T15:29:41;99497.22;;;28.45;38.78
18527;BME280;9393;42.158;24.748;2023-09-19T15:32:46;99492.09;;;28.39;38.95
18527;BME280;9393;42.158;24.748;2023-09-19T15:36:00;99499.06;;;28.40;39.00
18527;BME280;9393;42.158;24.748;2023-09-19T15:39:06;99501.03;;;28.54;38.64
18527;BME280;9393;42.158;24.748;2023-09-19T15:42:13;99507.75;;;28.57;38.86
18527;BME280;9393;42.158;24.748;2023-09-19T15:45:18;99502.34;;;28.47;38.93
18527;BME280;9393;42.158;24.748;2023-09-19T15:48:22;99498.53;;;28.43;38.71
18527;BME280;9393;42.158;24.748;2023-09-19T15:51:28;99497.97;;;28.36;38.82
18527;BME280;9393;42.158;24.748;2023-09-19T15:54:32;99494.47;;;28.03;39.78
18527;BME280;9393;42.158;24.748;2023-09-19T15:57:38;99499.09;;;28.08;39.53
18527;BME280;9393;42.158;24.748;2023-09-19T16:00:42;99497.00;;;28.15;39.36
18527;BME280;9393;42.158;24.748;2023-09-19T16:03:47;99495.03;;;28.05;39.54
18527;BME280;9393;42.158;24.748;2023-09-19T16:06:53;99506.78;;;27.99;39.44
18527;BME280;9393;42.158;24.748;2023-09-19T16:09:57;99493.25;;;27.84;40.51
18527;BME280;9393;42.158;24.748;2023-09-19T16:13:02;99497.59;;;27.90;40.38
18527;BME280;9393;42.158;24.748;2023-09-19T16:16:07;99499.16;;;27.86;40.50
18527;BME280;9393;42.158;24.748;2023-09-19T16:19:14;99498.63;;;27.84;40.35
18527;BME280;9393;42.158;24.748;2023-09-19T16:22:20;99499.66;;;27.83;40.57
18527;BME280;9393;42.158;24.748;2023-09-19T16:25:25;99488.94;;;27.83;39.69
18527;BME280;9393;42.158;24.748;2023-09-19T16:28:29;99500.44;;;27.79;38.42
18527;BME280;9393;42.158;24.748;2023-09-19T16:31:33;99483.00;;;27.76;38.77
18527;BME280;9393;42.158;24.748;2023-09-19T16:34:38;99492.06;;;27.70;39.72